Citadel — PBOK — position and weather

sailwx.info

Track history (hours):
 
Tides and Currents Weather Stations Pressure Air Temp Water Temp Dewpoint Dewpoint Depression Visibility Wind Speed Wind Dir Waves Ship Positions

Citadel

Last reported at 2016-Sep-30 14:33 UTC. Time now 2016-Sep-30 15:16 UTC.
Position N 51°48' E 003°15'.

Length 111 m; draft 4 m.

Type: Cargo ship. MMSI: 245977000.

Date/timePositionNaut miles runAvg speedWind from/ knotsBaromVisibWave heightAir tempDewpointWater temp
2016-Sep-30 14:33N 51°48' E 003°15'35 8.7
2016-Sep-30 10:33N 51°58' E 004°09'6 3.0
2016-Sep-30 08:33N 51°53' E 004°16'0 0.0
2016-Sep-30 06:33N 51°53' E 004°16'0 0.0
2016-Sep-30 03:32N 51°53' E 004°16'0 0.0
2016-Sep-30 02:32N 51°53' E 004°16'0 0.0
2016-Sep-29 23:33N 51°53' E 004°16'0 0.0
2016-Sep-29 21:32N 51°53' E 004°16'0 0.0
2016-Sep-29 20:29N 51°53' E 004°16'0 0.0
2016-Sep-29 19:31N 51°53' E 004°16'0 0.0
2016-Sep-29 16:33N 51°53' E 004°16'0 0.0
2016-Sep-29 15:30N 51°53' E 004°16'0 0.0
2016-Sep-29 14:33N 51°53' E 004°16'0 0.0
2016-Sep-29 13:32N 51°53' E 004°16'0 0.0
2016-Sep-29 08:27N 51°53' E 004°16'0 0.0
2016-Sep-29 07:24N 51°53' E 004°16'0 0.0
2016-Sep-29 00:33N 51°53' E 004°16'0 0.0
2016-Sep-28 21:31N 51°53' E 004°16'0 0.0
2016-Sep-28 19:33N 51°53' E 004°16'0 0.0
2016-Sep-28 16:29N 51°53' E 004°16'0 0.0
2016-Sep-28 15:31N 51°53' E 004°16'0 0.0
2016-Sep-28 12:33N 51°53' E 004°16'0 0.0
2016-Sep-28 08:31N 51°53' E 004°16'37 7.1
2016-Sep-28 03:21N 51°54' E 003°17'910.8
2016-Sep-28 02:33N 51°51' E 003°04'1111.3
2016-Sep-28 01:33N 51°48' E 002°46'2412.2
2016-Sep-27 23:33N 51°31' E 002°18'11512.5
2016-Sep-27 14:22N 50°01' E 000°25'910.7
2016-Sep-27 13:33N 49°54' E 000°16'3311.0
2016-Sep-27 10:33N 49°26' W 000°11'14 1.4
2016-Sep-27 00:29N 49°14' W 000°18'0 0.0
2016-Sep-26 20:30N 49°14' W 000°18'0 0.0
2016-Sep-26 19:33N 49°14' W 000°18'0 0.0
2016-Sep-26 15:31N 49°14' W 000°18'0 0.0
2016-Sep-26 13:33N 49°14' W 000°18'0 0.0
2016-Sep-26 11:32N 49°14' W 000°18'0 0.0
2016-Sep-26 08:31N 49°14' W 000°18'0 0.0
2016-Sep-26 02:31N 49°14' W 000°18'0 0.0
2016-Sep-26 01:31N 49°14' W 000°18'0 0.0
2016-Sep-26 00:33N 49°14' W 000°18'0 0.0
2016-Sep-25 21:32N 49°14' W 000°18'0 0.0
2016-Sep-25 17:33N 49°14' W 000°18'0 0.0
2016-Sep-25 16:33N 49°14' W 000°18'0 0.0
2016-Sep-25 15:33N 49°14' W 000°18'0 0.0
2016-Sep-25 14:32N 49°14' W 000°18'0 0.0
2016-Sep-25 12:31N 49°14' W 000°18'0 0.0
2016-Sep-25 11:31N 49°14' W 000°18'0 0.0
2016-Sep-25 10:33N 49°14' W 000°18'0 0.0
2016-Sep-25 09:33N 49°14' W 000°18'0 0.0
2016-Sep-25 07:32N 49°14' W 000°18'0 0.0
2016-Sep-25 04:31N 49°14' W 000°18'0 0.0
2016-Sep-25 00:32N 49°14' W 000°18'0 0.0
2016-Sep-24 22:28N 49°14' W 000°18'0 0.0
2016-Sep-24 21:31N 49°14' W 000°18'0 0.0
2016-Sep-24 19:33N 49°14' W 000°18'0 0.0
2016-Sep-24 18:32N 49°14' W 000°18'0 0.0
2016-Sep-24 17:32N 49°14' W 000°18'0 0.0
2016-Sep-24 16:32N 49°14' W 000°18'0 0.0
2016-Sep-24 14:31N 49°14' W 000°18'0 0.0
2016-Sep-24 12:30N 49°14' W 000°18'0 0.0
2016-Sep-24 10:29N 49°14' W 000°18'0 0.0
2016-Sep-24 09:32N 49°14' W 000°18'0 0.0
2016-Sep-24 03:32N 49°14' W 000°18'0 0.0
2016-Sep-24 02:32N 49°14' W 000°18'0 0.0
2016-Sep-24 01:31N 49°14' W 000°18'0 0.0
2016-Sep-24 00:31N 49°14' W 000°18'0 0.0
2016-Sep-23 19:32N 49°14' W 000°18'0 0.0
2016-Sep-23 17:31N 49°14' W 000°18'0 0.0
2016-Sep-23 16:33N 49°14' W 000°18'0 0.0
2016-Sep-23 15:30N 49°14' W 000°18'0 0.0
2016-Sep-23 13:32N 49°14' W 000°18'16 4.1
2016-Sep-23 09:33N 49°29' W 000°10'3511.6
2016-Sep-23 06:33N 49°59' E 000°16'5111.9
2016-Sep-23 02:17N 50°43' E 000°56'811.5
2016-Sep-23 01:33N 50°49' E 001°06'1212.5
2016-Sep-23 00:33N 50°57' E 001°21'1514.6
2016-Sep-22 23:33N 51°07' E 001°37'3913.0
2016-Sep-22 20:33N 51°38' E 002°15'9111.4
2016-Sep-22 12:33N 52°27' E 004°19'  
Track history (hours):
 
Tides and Currents Weather Stations Pressure Air Temp Water Temp Dewpoint Dewpoint Depression Visibility Wind Speed Wind Dir Waves Ship Positions

Citadel

Last reported at 2016-Sep-30 14:33 UTC. Time now 2016-Sep-30 15:16 UTC.
Position N 51°48' E 003°15'.

Length 111 m; draft 4 m.

Type: Cargo ship. MMSI: 245977000.

Date/timePositionNaut miles runAvg speedWind from/ knotsBaromVisibWave heightAir tempDewpointWater temp
2016-Sep-30 14:33N 51°48' E 003°15'35 8.7
2016-Sep-30 10:33N 51°58' E 004°09'6 3.0
2016-Sep-30 08:33N 51°53' E 004°16'0 0.0
2016-Sep-30 06:33N 51°53' E 004°16'0 0.0
2016-Sep-30 03:32N 51°53' E 004°16'0 0.0
2016-Sep-30 02:32N 51°53' E 004°16'0 0.0
2016-Sep-29 23:33N 51°53' E 004°16'0 0.0
2016-Sep-29 21:32N 51°53' E 004°16'0 0.0
2016-Sep-29 20:29N 51°53' E 004°16'0 0.0
2016-Sep-29 19:31N 51°53' E 004°16'0 0.0
2016-Sep-29 16:33N 51°53' E 004°16'0 0.0
2016-Sep-29 15:30N 51°53' E 004°16'0 0.0
2016-Sep-29 14:33N 51°53' E 004°16'0 0.0
2016-Sep-29 13:32N 51°53' E 004°16'0 0.0
2016-Sep-29 08:27N 51°53' E 004°16'0 0.0
2016-Sep-29 07:24N 51°53' E 004°16'0 0.0
2016-Sep-29 00:33N 51°53' E 004°16'0 0.0
2016-Sep-28 21:31N 51°53' E 004°16'0 0.0
2016-Sep-28 19:33N 51°53' E 004°16'0 0.0
2016-Sep-28 16:29N 51°53' E 004°16'0 0.0
2016-Sep-28 15:31N 51°53' E 004°16'0 0.0
2016-Sep-28 12:33N 51°53' E 004°16'0 0.0
2016-Sep-28 08:31N 51°53' E 004°16'37 7.1
2016-Sep-28 03:21N 51°54' E 003°17'910.8
2016-Sep-28 02:33N 51°51' E 003°04'1111.3
2016-Sep-28 01:33N 51°48' E 002°46'2412.2
2016-Sep-27 23:33N 51°31' E 002°18'11512.5
2016-Sep-27 14:22N 50°01' E 000°25'910.7
2016-Sep-27 13:33N 49°54' E 000°16'3311.0
2016-Sep-27 10:33N 49°26' W 000°11'14 1.4
2016-Sep-27 00:29N 49°14' W 000°18'0 0.0
2016-Sep-26 20:30N 49°14' W 000°18'0 0.0
2016-Sep-26 19:33N 49°14' W 000°18'0 0.0
2016-Sep-26 15:31N 49°14' W 000°18'0 0.0
2016-Sep-26 13:33N 49°14' W 000°18'0 0.0
2016-Sep-26 11:32N 49°14' W 000°18'0 0.0
2016-Sep-26 08:31N 49°14' W 000°18'0 0.0
2016-Sep-26 02:31N 49°14' W 000°18'0 0.0
2016-Sep-26 01:31N 49°14' W 000°18'0 0.0
2016-Sep-26 00:33N 49°14' W 000°18'0 0.0
2016-Sep-25 21:32N 49°14' W 000°18'0 0.0
2016-Sep-25 17:33N 49°14' W 000°18'0 0.0
2016-Sep-25 16:33N 49°14' W 000°18'0 0.0
2016-Sep-25 15:33N 49°14' W 000°18'0 0.0
2016-Sep-25 14:32N 49°14' W 000°18'0 0.0
2016-Sep-25 12:31N 49°14' W 000°18'0 0.0
2016-Sep-25 11:31N 49°14' W 000°18'0 0.0
2016-Sep-25 10:33N 49°14' W 000°18'0 0.0
2016-Sep-25 09:33N 49°14' W 000°18'0 0.0
2016-Sep-25 07:32N 49°14' W 000°18'0 0.0
2016-Sep-25 04:31N 49°14' W 000°18'0 0.0
2016-Sep-25 00:32N 49°14' W 000°18'0 0.0
2016-Sep-24 22:28N 49°14' W 000°18'0 0.0
2016-Sep-24 21:31N 49°14' W 000°18'0 0.0
2016-Sep-24 19:33N 49°14' W 000°18'0 0.0
2016-Sep-24 18:32N 49°14' W 000°18'0 0.0
2016-Sep-24 17:32N 49°14' W 000°18'0 0.0
2016-Sep-24 16:32N 49°14' W 000°18'0 0.0
2016-Sep-24 14:31N 49°14' W 000°18'0 0.0
2016-Sep-24 12:30N 49°14' W 000°18'0 0.0
2016-Sep-24 10:29N 49°14' W 000°18'0 0.0
2016-Sep-24 09:32N 49°14' W 000°18'0 0.0
2016-Sep-24 03:32N 49°14' W 000°18'0 0.0
2016-Sep-24 02:32N 49°14' W 000°18'0 0.0
2016-Sep-24 01:31N 49°14' W 000°18'0 0.0
2016-Sep-24 00:31N 49°14' W 000°18'0 0.0
2016-Sep-23 19:32N 49°14' W 000°18'0 0.0
2016-Sep-23 17:31N 49°14' W 000°18'0 0.0
2016-Sep-23 16:33N 49°14' W 000°18'0 0.0
2016-Sep-23 15:30N 49°14' W 000°18'0 0.0
2016-Sep-23 13:32N 49°14' W 000°18'16 4.1
2016-Sep-23 09:33N 49°29' W 000°10'3511.6
2016-Sep-23 06:33N 49°59' E 000°16'5111.9
2016-Sep-23 02:17N 50°43' E 000°56'811.5
2016-Sep-23 01:33N 50°49' E 001°06'1212.5
2016-Sep-23 00:33N 50°57' E 001°21'1514.6
2016-Sep-22 23:33N 51°07' E 001°37'3913.0
2016-Sep-22 20:33N 51°38' E 002°15'9111.4
2016-Sep-22 12:33N 52°27' E 004°19'  

Dump ship's entire track history